sensor_id;sensor_type;location;lat;lon;timestamp;pressure;altitude;pressure_sealevel;temperature;humidity
74635;BME280;63140;56.306;43.984;2022-09-30T00:01:44;99522.91;;;9.64;82.10
74635;BME280;63140;56.306;43.984;2022-09-30T00:04:20;99528.97;;;9.65;82.27
74635;BME280;63140;56.306;43.984;2022-09-30T00:06:47;99524.44;;;9.65;82.18
74635;BME280;63140;56.306;43.984;2022-09-30T00:09:13;99525.22;;;9.66;82.11
74635;BME280;63140;56.306;43.984;2022-09-30T00:11:40;99533.91;;;9.66;82.22
74635;BME280;63140;56.306;43.984;2022-09-30T00:14:07;99533.91;;;9.63;81.94
74635;BME280;63140;56.306;43.984;2022-09-30T00:16:37;99533.50;;;9.64;82.14
74635;BME280;63140;56.306;43.984;2022-09-30T00:19:03;99538.81;;;9.64;82.17
74635;BME280;63140;56.306;43.984;2022-09-30T00:21:30;99536.56;;;9.66;82.27
74635;BME280;63140;56.306;43.984;2022-09-30T00:23:58;99527.47;;;9.67;82.24
74635;BME280;63140;56.306;43.984;2022-09-30T00:26:24;99541.13;;;9.69;82.12
74635;BME280;63140;56.306;43.984;2022-09-30T00:28:53;99526.72;;;9.70;82.06
74635;BME280;63140;56.306;43.984;2022-09-30T00:31:22;99541.50;;;9.71;82.01
74635;BME280;63140;56.306;43.984;2022-09-30T00:33:48;99543.03;;;9.72;82.02
74635;BME280;63140;56.306;43.984;2022-09-30T00:38:58;99543.78;;;9.76;82.16
74635;BME280;63140;56.306;43.984;2022-09-30T00:41:25;99540.41;;;9.79;82.08
74635;BME280;63140;56.306;43.984;2022-09-30T00:43:51;99544.56;;;9.80;82.08
74635;BME280;63140;56.306;43.984;2022-09-30T00:48:57;99553.28;;;9.85;81.98
74635;BME280;63140;56.306;43.984;2022-09-30T00:51:33;99560.84;;;9.86;81.93
74635;BME280;63140;56.306;43.984;2022-09-30T00:54:02;99559.34;;;9.89;81.83
74635;BME280;63140;56.306;43.984;2022-09-30T00:56:35;99554.06;;;9.92;81.73
74635;BME280;63140;56.306;43.984;2022-09-30T00:59:05;99554.44;;;9.94;81.63
74635;BME280;63140;56.306;43.984;2022-09-30T01:01:35;99554.81;;;9.96;81.55
74635;BME280;63140;56.306;43.984;2022-09-30T01:04:05;99560.91;;;9.97;81.51
74635;BME280;63140;56.306;43.984;2022-09-30T01:06:35;99559.75;;;9.98;81.53
74635;BME280;63140;56.306;43.984;2022-09-30T01:09:01;99572.28;;;10.01;81.61
74635;BME280;63140;56.306;43.984;2022-09-30T01:11:28;99562.03;;;10.03;81.36
74635;BME280;63140;56.306;43.984;2022-09-30T01:13:57;99567.72;;;10.05;81.34
74635;BME280;63140;56.306;43.984;2022-09-30T01:25:00;99572.28;;;10.04;81.11
74635;BME280;63140;56.306;43.984;2022-09-30T01:27:40;99571.53;;;10.04;81.07
74635;BME280;63140;56.306;43.984;2022-09-30T01:51:33;99575.28;;;9.96;81.11
74635;BME280;63140;56.306;43.984;2022-09-30T01:54:17;99570.72;;;9.96;80.95
74635;BME280;63140;56.306;43.984;2022-09-30T01:56:59;99580.97;;;9.94;81.02
74635;BME280;63140;56.306;43.984;2022-09-30T01:59:43;99573.78;;;9.95;80.86
74635;BME280;63140;56.306;43.984;2022-09-30T02:02:18;99573.78;;;9.95;80.99
74635;BME280;63140;56.306;43.984;2022-09-30T02:04:54;99577.94;;;9.92;81.01
74635;BME280;63140;56.306;43.984;2022-09-30T02:07:32;99585.50;;;9.87;81.00
74635;BME280;63140;56.306;43.984;2022-09-30T02:12:38;99583.19;;;9.78;81.30
74635;BME280;63140;56.306;43.984;2022-09-30T02:15:08;99578.28;;;9.76;81.28
74635;BME280;63140;56.306;43.984;2022-09-30T02:17:45;99576.38;;;9.77;81.18
74635;BME280;63140;56.306;43.984;2022-09-30T02:20:19;99580.53;;;9.74;81.06
74635;BME280;63140;56.306;43.984;2022-09-30T02:22:56;99585.06;;;9.74;81.43
74635;BME280;63140;56.306;43.984;2022-09-30T02:25:32;99594.94;;;9.73;81.33
74635;BME280;63140;56.306;43.984;2022-09-30T02:28:05;99600.22;;;9.73;81.32
74635;BME280;63140;56.306;43.984;2022-09-30T02:30:38;99602.47;;;9.71;81.13
74635;BME280;63140;56.306;43.984;2022-09-30T02:33:13;99604.00;;;9.69;81.11
74635;BME280;63140;56.306;43.984;2022-09-30T02:35:45;99603.22;;;9.65;81.32
74635;BME280;63140;56.306;43.984;2022-09-30T02:38:18;99610.41;;;9.64;81.35
74635;BME280;63140;56.306;43.984;2022-09-30T02:40:50;99603.22;;;9.65;81.31
74635;BME280;63140;56.306;43.984;2022-09-30T02:43:19;99614.59;;;9.65;81.28
74635;BME280;63140;56.306;43.984;2022-09-30T02:46:05;99615.34;;;9.66;81.36
74635;BME280;63140;56.306;43.984;2022-09-30T02:48:58;99610.06;;;9.66;81.19
74635;BME280;63140;56.306;43.984;2022-09-30T02:51:44;99617.25;;;9.65;81.20
74635;BME280;63140;56.306;43.984;2022-09-30T02:54:36;99611.53;;;9.63;81.46
74635;BME280;63140;56.306;43.984;2022-09-30T02:57:41;99611.16;;;9.61;81.20
74635;BME280;63140;56.306;43.984;2022-09-30T03:00:10;99609.25;;;9.62;81.34
74635;BME280;63140;56.306;43.984;2022-09-30T03:02:38;99610.03;;;9.59;81.12
74635;BME280;63140;56.306;43.984;2022-09-30T03:05:04;99613.03;;;9.57;81.13
74635;BME280;63140;56.306;43.984;2022-09-30T03:07:30;99611.50;;;9.56;81.17
74635;BME280;63140;56.306;43.984;2022-09-30T03:09:56;99611.84;;;9.51;80.99
74635;BME280;63140;56.306;43.984;2022-09-30T03:20:43;99604.28;;;9.46;80.61
74635;BME280;63140;56.306;43.984;2022-09-30T03:28:36;99611.81;;;9.44;80.57
74635;BME280;63140;56.306;43.984;2022-09-30T03:33:56;99609.16;;;9.44;80.68
74635;BME280;63140;56.306;43.984;2022-09-30T03:36:45;99602.34;;;9.43;80.62
74635;BME280;63140;56.306;43.984;2022-09-30T03:39:24;99610.69;;;9.41;80.33
74635;BME280;63140;56.306;43.984;2022-09-30T03:42:19;99614.06;;;9.38;80.59
74635;BME280;63140;56.306;43.984;2022-09-30T03:45:00;99613.31;;;9.38;80.87
74635;BME280;63140;56.306;43.984;2022-09-30T03:47:30;99611.44;;;9.38;80.76
74635;BME280;63140;56.306;43.984;2022-09-30T03:50:00;99621.66;;;9.40;80.63
74635;BME280;63140;56.306;43.984;2022-09-30T03:52:30;99619.72;;;9.37;80.62
74635;BME280;63140;56.306;43.984;2022-09-30T03:54:58;99626.59;;;9.41;80.39
74635;BME280;63140;56.306;43.984;2022-09-30T03:57:25;99631.50;;;9.43;80.40
74635;BME280;63140;56.306;43.984;2022-09-30T03:59:54;99627.00;;;9.47;80.43
74635;BME280;63140;56.306;43.984;2022-09-30T04:02:20;99632.69;;;9.49;80.14
74635;BME280;63140;56.306;43.984;2022-09-30T04:04:46;99623.59;;;9.50;80.08
74635;BME280;63140;56.306;43.984;2022-09-30T04:07:12;99627.38;;;9.49;79.69
74635;BME280;63140;56.306;43.984;2022-09-30T04:09:38;99615.66;;;9.50;79.65
74635;BME280;63140;56.306;43.984;2022-09-30T04:12:04;99621.34;;;9.52;79.70
74635;BME280;63140;56.306;43.984;2022-09-30T04:14:31;99623.25;;;9.55;79.31
74635;BME280;63140;56.306;43.984;2022-09-30T04:16:57;99621.38;;;9.59;79.49
74635;BME280;63140;56.306;43.984;2022-09-30T04:19:23;99630.50;;;9.65;79.04
74635;BME280;63140;56.306;43.984;2022-09-30T04:21:52;99629.75;;;9.68;79.24
74635;BME280;63140;56.306;43.984;2022-09-30T04:24:20;99635.06;;;9.72;79.13
74635;BME280;63140;56.306;43.984;2022-09-30T04:26:47;99629.00;;;9.71;79.33
74635;BME280;63140;56.306;43.984;2022-09-30T04:29:13;99638.50;;;9.72;79.20
74635;BME280;63140;56.306;43.984;2022-09-30T04:31:40;99639.56;;;9.64;79.06
74635;BME280;63140;56.306;43.984;2022-09-30T04:34:05;99648.66;;;9.63;79.38
74635;BME280;63140;56.306;43.984;2022-09-30T04:36:31;99632.00;;;9.63;79.35
74635;BME280;63140;56.306;43.984;2022-09-30T04:38:57;99630.50;;;9.65;79.67
74635;BME280;63140;56.306;43.984;2022-09-30T04:41:23;99630.50;;;9.65;79.75
74635;BME280;63140;56.306;43.984;2022-09-30T04:43:49;99631.28;;;9.69;80.04
74635;BME280;63140;56.306;43.984;2022-09-30T04:46:17;99637.34;;;9.73;80.17
74635;BME280;63140;56.306;43.984;2022-09-30T04:48:44;99635.88;;;9.79;80.13
74635;BME280;63140;56.306;43.984;2022-09-30T04:51:11;99641.94;;;9.84;79.99
74635;BME280;63140;56.306;43.984;2022-09-30T04:53:38;99646.88;;;9.85;80.00
74635;BME280;63140;56.306;43.984;2022-09-30T04:56:05;99648.03;;;9.88;80.07
74635;BME280;63140;56.306;43.984;2022-09-30T04:58:31;99655.59;;;9.89;80.25
74635;BME280;63140;56.306;43.984;2022-09-30T05:01:08;99669.25;;;9.91;80.22
74635;BME280;63140;56.306;43.984;2022-09-30T05:03:34;99666.22;;;9.93;80.25
74635;BME280;63140;56.306;43.984;2022-09-30T05:06:01;99674.59;;;9.98;80.26
74635;BME280;63140;56.306;43.984;2022-09-30T05:08:27;99673.09;;;10.04;80.15
74635;BME280;63140;56.306;43.984;2022-09-30T05:10:58;99676.13;;;10.10;79.89
74635;BME280;63140;56.306;43.984;2022-09-30T05:13:29;99684.50;;;10.12;79.77
74635;BME280;63140;56.306;43.984;2022-09-30T05:15:55;99692.06;;;10.10;79.91
74635;BME280;63140;56.306;43.984;2022-09-30T05:18:21;99685.25;;;10.09;80.21
74635;BME280;63140;56.306;43.984;2022-09-30T05:20:51;99691.31;;;10.10;80.35
74635;BME280;63140;56.306;43.984;2022-09-30T05:23:18;99686.00;;;10.10;80.46
74635;BME280;63140;56.306;43.984;2022-09-30T05:25:45;99695.13;;;10.12;80.57
74635;BME280;63140;56.306;43.984;2022-09-30T05:28:11;99693.22;;;10.13;80.55
74635;BME280;63140;56.306;43.984;2022-09-30T05:30:40;99691.72;;;10.15;80.71
74635;BME280;63140;56.306;43.984;2022-09-30T05:33:07;99688.31;;;10.18;80.65
74635;BME280;63140;56.306;43.984;2022-09-30T05:35:33;99694.75;;;10.21;80.62
74635;BME280;63140;56.306;43.984;2022-09-30T05:38:00;99695.91;;;10.23;80.52
74635;BME280;63140;56.306;43.984;2022-09-30T05:40:28;99696.69;;;10.27;80.63
74635;BME280;63140;56.306;43.984;2022-09-30T05:42:56;99700.50;;;10.30;80.78
74635;BME280;63140;56.306;43.984;2022-09-30T05:45:23;99706.56;;;10.31;80.42
74635;BME280;63140;56.306;43.984;2022-09-30T05:47:55;99716.47;;;10.37;80.43
74635;BME280;63140;56.306;43.984;2022-09-30T05:50:23;99719.53;;;10.43;80.31
74635;BME280;63140;56.306;43.984;2022-09-30T05:52:49;99719.13;;;10.48;80.18
74635;BME280;63140;56.306;43.984;2022-09-30T05:55:16;99714.97;;;10.50;80.10
74635;BME280;63140;56.306;43.984;2022-09-30T05:57:46;99718.41;;;10.55;80.06
74635;BME280;63140;56.306;43.984;2022-09-30T06:00:13;99722.22;;;10.57;79.98
74635;BME280;63140;56.306;43.984;2022-09-30T06:02:39;99716.50;;;10.59;80.08
74635;BME280;63140;56.306;43.984;2022-09-30T06:05:07;99719.56;;;10.64;79.91
74635;BME280;63140;56.306;43.984;2022-09-30T06:07:34;99725.66;;;10.68;79.81
74635;BME280;63140;56.306;43.984;2022-09-30T06:10:05;99726.41;;;10.72;79.77
74635;BME280;63140;56.306;43.984;2022-09-30T06:12:33;99727.94;;;10.81;79.80
74635;BME280;63140;56.306;43.984;2022-09-30T06:15:02;99725.28;;;10.88;79.46
74635;BME280;63140;56.306;43.984;2022-09-30T06:17:30;99736.31;;;10.97;79.43
74635;BME280;63140;56.306;43.984;2022-09-30T06:19:56;99733.28;;;11.06;79.22
74635;BME280;63140;56.306;43.984;2022-09-30T06:22:22;99736.31;;;11.11;79.15
74635;BME280;63140;56.306;43.984;2022-09-30T06:24:51;99740.88;;;11.18;79.36
74635;BME280;63140;56.306;43.984;2022-09-30T06:27:17;99740.13;;;11.25;79.33
74635;BME280;63140;56.306;43.984;2022-09-30T06:29:43;99730.25;;;11.25;79.04
74635;BME280;63140;56.306;43.984;2022-09-30T06:32:09;99728.72;;;11.31;79.42
74635;BME280;63140;56.306;43.984;2022-09-30T06:34:35;99725.69;;;11.40;79.20
74635;BME280;63140;56.306;43.984;2022-09-30T06:37:01;99727.97;;;11.52;78.77
74635;BME280;63140;56.306;43.984;2022-09-30T06:39:27;99719.56;;;11.57;78.43
74635;BME280;63140;56.306;43.984;2022-09-30T06:41:53;99715.78;;;11.65;78.13
74635;BME280;63140;56.306;43.984;2022-09-30T06:44:24;99722.59;;;11.74;78.44
74635;BME280;63140;56.306;43.984;2022-09-30T06:46:50;99727.91;;;11.81;78.13
74635;BME280;63140;56.306;43.984;2022-09-30T06:49:16;99738.13;;;11.93;78.09
74635;BME280;63140;56.306;43.984;2022-09-30T06:51:42;99744.97;;;12.01;77.70
74635;BME280;63140;56.306;43.984;2022-09-30T06:54:08;99747.63;;;12.08;77.40
74635;BME280;63140;56.306;43.984;2022-09-30T06:56:34;99747.94;;;12.17;77.42
74635;BME280;63140;56.306;43.984;2022-09-30T06:59:00;99754.81;;;12.22;77.31
74635;BME280;63140;56.306;43.984;2022-09-30T07:01:26;99752.09;;;12.29;77.06
74635;BME280;63140;56.306;43.984;2022-09-30T07:03:53;99750.91;;;12.41;76.81
74635;BME280;63140;56.306;43.984;2022-09-30T07:06:23;99752.00;;;12.54;76.68
74635;BME280;63140;56.306;43.984;2022-09-30T07:08:51;99744.28;;;12.71;76.69
74635;BME280;63140;56.306;43.984;2022-09-30T07:11:18;99751.81;;;12.83;76.51
74635;BME280;63140;56.306;43.984;2022-09-30T07:13:45;99762.38;;;12.97;76.07
74635;BME280;63140;56.306;43.984;2022-09-30T07:16:13;99756.22;;;13.07;75.86
74635;BME280;63140;56.306;43.984;2022-09-30T07:18:40;99755.75;;;13.20;75.48
74635;BME280;63140;56.306;43.984;2022-09-30T07:21:13;99741.56;;;13.33;75.19
74635;BME280;63140;56.306;43.984;2022-09-30T07:23:44;99747.63;;;13.41;75.09
74635;BME280;63140;56.306;43.984;2022-09-30T07:26:19;99747.19;;;13.46;74.66
74635;BME280;63140;56.306;43.984;2022-09-30T07:28:47;99737.97;;;13.51;74.45
74635;BME280;63140;56.306;43.984;2022-09-30T07:31:15;99743.28;;;13.54;74.60
74635;BME280;63140;56.306;43.984;2022-09-30T07:33:42;99737.88;;;13.61;74.46
74635;BME280;63140;56.306;43.984;2022-09-30T07:36:09;99748.16;;;13.67;74.47
74635;BME280;63140;56.306;43.984;2022-09-30T07:38:38;99737.81;;;13.69;74.41
74635;BME280;63140;56.306;43.984;2022-09-30T07:41:11;99739.69;;;13.72;74.33
74635;BME280;63140;56.306;43.984;2022-09-30T07:43:39;99748.00;;;13.81;74.27
74635;BME280;63140;56.306;43.984;2022-09-30T07:46:21;99751.69;;;13.94;74.14
74635;BME280;63140;56.306;43.984;2022-09-30T07:48:51;99753.44;;;14.08;74.15
74635;BME280;63140;56.306;43.984;2022-09-30T07:51:24;99744.59;;;14.15;73.81
74635;BME280;63140;56.306;43.984;2022-09-30T07:53:54;99742.25;;;14.17;73.41
74635;BME280;63140;56.306;43.984;2022-09-30T07:56:22;99744.53;;;14.18;73.35
74635;BME280;63140;56.306;43.984;2022-09-30T07:58:54;99752.78;;;14.31;73.52
74635;BME280;63140;56.306;43.984;2022-09-30T08:01:20;99751.16;;;14.37;73.32
74635;BME280;63140;56.306;43.984;2022-09-30T08:03:47;99751.59;;;14.36;73.30
74635;BME280;63140;56.306;43.984;2022-09-30T08:06:16;99750.47;;;14.33;73.54
74635;BME280;63140;56.306;43.984;2022-09-30T08:08:44;99750.47;;;14.33;73.64
74635;BME280;63140;56.306;43.984;2022-09-30T08:11:11;99758.47;;;14.33;73.59
74635;BME280;63140;56.306;43.984;2022-09-30T08:13:39;99761.84;;;14.37;73.67
74635;BME280;63140;56.306;43.984;2022-09-30T08:16:05;99754.13;;;14.46;73.76
74635;BME280;63140;56.306;43.984;2022-09-30T08:18:31;99759.44;;;14.50;73.58
74635;BME280;63140;56.306;43.984;2022-09-30T08:21:06;99755.56;;;14.54;73.31
74635;BME280;63140;56.306;43.984;2022-09-30T08:23:33;99755.63;;;14.47;73.46
74635;BME280;63140;56.306;43.984;2022-09-30T08:26:07;99754.91;;;14.43;73.89
74635;BME280;63140;56.306;43.984;2022-09-30T08:28:34;99757.13;;;14.48;73.88
74635;BME280;63140;56.306;43.984;2022-09-30T08:31:08;99759.31;;;14.61;73.97
74635;BME280;63140;56.306;43.984;2022-09-30T08:33:37;99753.84;;;14.68;73.38
74635;BME280;63140;56.306;43.984;2022-09-30T08:36:14;99743.81;;;14.75;73.50
74635;BME280;63140;56.306;43.984;2022-09-30T08:38:41;99750.63;;;14.80;73.38
74635;BME280;63140;56.306;43.984;2022-09-30T08:52:04;99755.47;;;15.12;72.31
74635;BME280;63140;56.306;43.984;2022-09-30T08:54:34;99755.53;;;15.09;72.23
74635;BME280;63140;56.306;43.984;2022-09-30T08:57:02;99757.78;;;15.14;72.53
74635;BME280;63140;56.306;43.984;2022-09-30T08:59:39;99762.31;;;15.17;72.32
74635;BME280;63140;56.306;43.984;2022-09-30T09:04:42;99764.72;;;15.08;72.30
74635;BME280;63140;56.306;43.984;2022-09-30T09:10:17;99770.91;;;15.28;71.96
74635;BME280;63140;56.306;43.984;2022-09-30T09:15:42;99774.03;;;14.99;71.97
74635;BME280;63140;56.306;43.984;2022-09-30T09:18:20;99774.25;;;14.85;72.35
74635;BME280;63140;56.306;43.984;2022-09-30T09:20:58;99768.53;;;14.83;72.89
74635;BME280;63140;56.306;43.984;2022-09-30T09:23:25;99764.34;;;14.82;72.97
74635;BME280;63140;56.306;43.984;2022-09-30T09:25:53;99765.16;;;14.79;73.08
74635;BME280;63140;56.306;43.984;2022-09-30T09:31:03;99755.25;;;14.76;73.39
74635;BME280;63140;56.306;43.984;2022-09-30T09:33:34;99755.72;;;14.71;73.46
74635;BME280;63140;56.306;43.984;2022-09-30T09:42:05;99765.44;;;14.58;73.67
74635;BME280;63140;56.306;43.984;2022-09-30T09:44:48;99773.47;;;14.58;73.69
74635;BME280;63140;56.306;43.984;2022-09-30T09:47:17;99760.53;;;14.52;73.68
74635;BME280;63140;56.306;43.984;2022-09-30T09:49:57;99770.44;;;14.55;73.71
74635;BME280;63140;56.306;43.984;2022-09-30T09:55:20;99776.75;;;14.69;73.59
74635;BME280;63140;56.306;43.984;2022-09-30T09:57:46;99767.84;;;14.79;73.42
74635;BME280;63140;56.306;43.984;2022-09-30T10:00:23;99765.25;;;14.99;73.23
74635;BME280;63140;56.306;43.984;2022-09-30T10:03:25;99762.66;;;15.19;72.42
74635;BME280;63140;56.306;43.984;2022-09-30T10:06:07;99766.97;;;15.36;72.13
74635;BME280;63140;56.306;43.984;2022-09-30T10:08:38;99763.97;;;15.54;71.28
74635;BME280;63140;56.306;43.984;2022-09-30T10:11:16;99763.91;;;15.81;70.97
74635;BME280;63140;56.306;43.984;2022-09-30T10:13:45;99761.59;;;16.03;70.00
74635;BME280;63140;56.306;43.984;2022-09-30T10:19:04;99771.81;;;16.28;69.00
74635;BME280;63140;56.306;43.984;2022-09-30T10:21:47;99776.31;;;16.71;68.30
74635;BME280;63140;56.306;43.984;2022-09-30T10:24:30;99776.00;;;16.85;67.06
74635;BME280;63140;56.306;43.984;2022-09-30T10:26:56;99786.31;;;16.67;67.48
74635;BME280;63140;56.306;43.984;2022-09-30T10:29:33;99777.22;;;16.64;67.38
74635;BME280;63140;56.306;43.984;2022-09-30T10:32:01;99777.00;;;16.91;67.04
74635;BME280;63140;56.306;43.984;2022-09-30T10:34:33;99776.84;;;17.15;66.43
74635;BME280;63140;56.306;43.984;2022-09-30T10:37:07;99778.84;;;17.60;65.26
74635;BME280;63140;56.306;43.984;2022-09-30T10:39:35;99777.41;;;18.01;63.97
74635;BME280;63140;56.306;43.984;2022-09-30T10:44:43;99770.50;;;18.42;62.62
74635;BME280;63140;56.306;43.984;2022-09-30T10:47:21;99775.78;;;18.45;62.62
74635;BME280;63140;56.306;43.984;2022-09-30T10:49:56;99769.81;;;19.40;62.37
74635;BME280;63140;56.306;43.984;2022-09-30T10:52:25;99766.09;;;19.94;59.31
74635;BME280;63140;56.306;43.984;2022-09-30T10:54:57;99765.34;;;20.24;57.88
74635;BME280;63140;56.306;43.984;2022-09-30T10:57:28;99773.34;;;20.06;58.42
74635;BME280;63140;56.306;43.984;2022-09-30T11:00:19;99776.47;;;20.26;58.33
74635;BME280;63140;56.306;43.984;2022-09-30T11:05:26;99775.50;;;21.32;55.87
74635;BME280;63140;56.306;43.984;2022-09-30T11:16:20;99762.22;;;20.97;56.91
74635;BME280;63140;56.306;43.984;2022-09-30T11:19:02;99765.84;;;21.13;56.19
74635;BME280;63140;56.306;43.984;2022-09-30T11:24:30;99767.75;;;20.22;57.92
74635;BME280;63140;56.306;43.984;2022-09-30T11:27:11;99758.97;;;19.65;59.17
74635;BME280;63140;56.306;43.984;2022-09-30T11:33:10;99750.53;;;19.41;60.58
74635;BME280;63140;56.306;43.984;2022-09-30T11:35:50;99755.84;;;19.67;59.88
74635;BME280;63140;56.306;43.984;2022-09-30T11:38:45;99750.97;;;20.18;59.27
74635;BME280;63140;56.306;43.984;2022-09-30T11:54:42;99761.00;;;19.26;60.27
74635;BME280;63140;56.306;43.984;2022-09-30T11:57:20;99755.28;;;18.90;61.23
74635;BME280;63140;56.306;43.984;2022-09-30T12:00:18;99744.50;;;18.90;61.99
74635;BME280;63140;56.306;43.984;2022-09-30T12:02:50;99747.72;;;18.97;61.71
74635;BME280;63140;56.306;43.984;2022-09-30T12:08:47;99746.00;;;18.91;61.84
74635;BME280;63140;56.306;43.984;2022-09-30T12:11:27;99748.13;;;18.70;62.29
74635;BME280;63140;56.306;43.984;2022-09-30T12:13:58;99748.78;;;18.49;62.93
74635;BME280;63140;56.306;43.984;2022-09-30T12:16:28;99746.41;;;18.25;63.39
74635;BME280;63140;56.306;43.984;2022-09-30T12:19:10;99746.66;;;18.02;63.80
74635;BME280;63140;56.306;43.984;2022-09-30T12:21:57;99734.66;;;17.77;64.63
74635;BME280;63140;56.306;43.984;2022-09-30T12:24:32;99738.22;;;17.58;65.41
74635;BME280;63140;56.306;43.984;2022-09-30T12:27:01;99732.91;;;17.41;65.67
74635;BME280;63140;56.306;43.984;2022-09-30T12:29:38;99730.56;;;17.27;66.48
74635;BME280;63140;56.306;43.984;2022-09-30T12:41:07;99733.94;;;16.82;67.54
74635;BME280;63140;56.306;43.984;2022-09-30T12:49:38;99729.94;;;16.54;68.30
74635;BME280;63140;56.306;43.984;2022-09-30T12:52:12;99735.53;;;16.43;68.52
74635;BME280;63140;56.306;43.984;2022-09-30T12:54:42;99730.38;;;16.33;68.81
74635;BME280;63140;56.306;43.984;2022-09-30T12:57:17;99728.34;;;16.20;69.36
74635;BME280;63140;56.306;43.984;2022-09-30T12:59:52;99731.72;;;16.05;69.78
74635;BME280;63140;56.306;43.984;2022-09-30T13:02:40;99728.53;;;15.90;70.33
74635;BME280;63140;56.306;43.984;2022-09-30T13:15:45;99748.28;;;15.56;71.64
74635;BME280;63140;56.306;43.984;2022-09-30T13:20:52;99755.63;;;15.52;72.15
74635;BME280;63140;56.306;43.984;2022-09-30T13:23:41;99755.69;;;15.48;72.68
74635;BME280;63140;56.306;43.984;2022-09-30T13:31:29;99758.59;;;15.34;72.89
74635;BME280;63140;56.306;43.984;2022-09-30T13:47:16;99759.53;;;14.97;74.31
74635;BME280;63140;56.306;43.984;2022-09-30T13:49:54;99755.00;;;14.94;74.27
74635;BME280;63140;56.306;43.984;2022-09-30T13:52:26;99761.16;;;14.91;74.58
74635;BME280;63140;56.306;43.984;2022-09-30T13:54:55;99766.16;;;14.89;74.61
74635;BME280;63140;56.306;43.984;2022-09-30T13:57:56;99762.00;;;14.84;75.18
74635;BME280;63140;56.306;43.984;2022-09-30T14:06:43;99783.56;;;14.73;75.32
74635;BME280;63140;56.306;43.984;2022-09-30T14:09:23;99776.75;;;14.69;75.30
74635;BME280;63140;56.306;43.984;2022-09-30T14:22:40;99783.84;;;14.48;76.19
74635;BME280;63140;56.306;43.984;2022-09-30T14:25:15;99795.34;;;14.45;76.35
74635;BME280;63140;56.306;43.984;2022-09-30T14:28:04;99796.13;;;14.42;76.29
74635;BME280;63140;56.306;43.984;2022-09-30T14:30:39;99793.88;;;14.41;76.45
74635;BME280;63140;56.306;43.984;2022-09-30T14:33:10;99799.25;;;14.37;76.55
74635;BME280;63140;56.306;43.984;2022-09-30T14:35:39;99788.22;;;14.35;76.68
74635;BME280;63140;56.306;43.984;2022-09-30T14:38:07;99786.69;;;14.34;76.54
74635;BME280;63140;56.306;43.984;2022-09-30T14:40:40;99788.25;;;14.31;76.80
74635;BME280;63140;56.306;43.984;2022-09-30T14:43:15;99789.03;;;14.28;76.90
74635;BME280;63140;56.306;43.984;2022-09-30T14:45:44;99791.72;;;14.28;77.03
74635;BME280;63140;56.306;43.984;2022-09-30T14:48:21;99791.38;;;14.26;77.17
74635;BME280;63140;56.306;43.984;2022-09-30T14:51:01;99791.00;;;14.24;77.15
74635;BME280;63140;56.306;43.984;2022-09-30T14:53:38;99792.56;;;14.22;77.40
74635;BME280;63140;56.306;43.984;2022-09-30T14:56:19;99795.63;;;14.20;77.62
74635;BME280;63140;56.306;43.984;2022-09-30T14:58:47;99800.22;;;14.20;77.40
74635;BME280;63140;56.306;43.984;2022-09-30T15:01:18;99793.00;;;14.17;77.56
74635;BME280;63140;56.306;43.984;2022-09-30T15:04:10;99794.16;;;14.16;77.79
74635;BME280;63140;56.306;43.984;2022-09-30T15:06:40;99791.13;;;14.14;77.68
74635;BME280;63140;56.306;43.984;2022-09-30T15:09:16;99793.84;;;14.10;77.81
74635;BME280;63140;56.306;43.984;2022-09-30T15:11:43;99794.63;;;14.07;77.90
74635;BME280;63140;56.306;43.984;2022-09-30T15:14:20;99789.69;;;14.05;78.24
74635;BME280;63140;56.306;43.984;2022-09-30T15:16:49;99790.84;;;14.04;77.93
74635;BME280;63140;56.306;43.984;2022-09-30T15:19:22;99788.97;;;14.01;77.91
74635;BME280;63140;56.306;43.984;2022-09-30T15:21:50;99792.00;;;14.03;77.86
74635;BME280;63140;56.306;43.984;2022-09-30T15:24:18;99790.50;;;14.02;77.91
74635;BME280;63140;56.306;43.984;2022-09-30T15:26:45;99793.16;;;14.02;77.79
74635;BME280;63140;56.306;43.984;2022-09-30T15:29:17;99793.56;;;14.01;78.02
74635;BME280;63140;56.306;43.984;2022-09-30T15:31:45;99790.53;;;13.99;77.93
74635;BME280;63140;56.306;43.984;2022-09-30T15:36:40;99795.53;;;13.93;78.26
74635;BME280;63140;56.306;43.984;2022-09-30T15:39:17;99792.09;;;13.93;78.27
74635;BME280;63140;56.306;43.984;2022-09-30T15:41:45;99789.81;;;13.95;78.30
74635;BME280;63140;56.306;43.984;2022-09-30T15:44:27;99799.72;;;13.94;78.28
74635;BME280;63140;56.306;43.984;2022-09-30T15:47:08;99788.25;;;13.97;78.24
74635;BME280;63140;56.306;43.984;2022-09-30T15:52:37;99794.34;;;13.98;78.03
74635;BME280;63140;56.306;43.984;2022-09-30T15:57:57;99795.13;;;13.98;77.73
74635;BME280;63140;56.306;43.984;2022-09-30T16:00:35;99800.44;;;13.98;77.73
74635;BME280;63140;56.306;43.984;2022-09-30T16:03:14;99785.94;;;13.99;77.78
74635;BME280;63140;56.306;43.984;2022-09-30T16:05:46;99785.94;;;13.99;77.79
74635;BME280;63140;56.306;43.984;2022-09-30T16:08:20;99797.38;;;14.00;77.82
74635;BME280;63140;56.306;43.984;2022-09-30T16:10:50;99792.78;;;14.00;77.71
74635;BME280;63140;56.306;43.984;2022-09-30T16:13:20;99793.16;;;14.02;77.67
74635;BME280;63140;56.306;43.984;2022-09-30T16:15:53;99790.13;;;14.00;77.71
74635;BME280;63140;56.306;43.984;2022-09-30T16:18:25;99795.13;;;13.98;77.39
74635;BME280;63140;56.306;43.984;2022-09-30T16:21:03;99797.03;;;13.98;77.74
74635;BME280;63140;56.306;43.984;2022-09-30T16:23:35;99788.25;;;13.97;77.55
74635;BME280;63140;56.306;43.984;2022-09-30T16:26:20;99798.16;;;13.97;77.63
74635;BME280;63140;56.306;43.984;2022-09-30T16:28:49;99790.56;;;13.95;77.55
74635;BME280;63140;56.306;43.984;2022-09-30T16:31:16;99784.84;;;13.93;77.69
74635;BME280;63140;56.306;43.984;2022-09-30T16:33:43;99785.25;;;13.92;77.66